Time;durP1;ratioP1;P1;durP2;ratioP2;P2;SDS_P1;SDS_P2;PMS_P1;PMS_P2;Temp;Humidity;BMP_temperature;BMP_pressure;BME280_temperature;BME280_humidity;BME280_pressure;Samples;Min_cycle;Max_cycle;Signal;HPM_P1;HPM_P2
2022/06/25 00:01:43;;;;;;;7.28;3.92;;;;;;;17.50;88.98;100768.25;5053339;28;20042;-71
2022/06/25 00:05:27;;;;;;;6.28;3.50;;;;;;;17.51;87.80;100759.66;5064918;28;20048;-71
2022/06/25 00:06:53;;;;;;;7.82;3.92;;;;;;;17.47;87.70;100752.97;5064262;28;20037;-70
2022/06/25 00:09:19;;;;;;;6.75;3.17;;;;;;;17.48;87.74;100760.19;5066211;28;20067;-71
2022/06/25 00:14:28;;;;;;;5.53;3.78;;;;;;;17.47;87.60;100761.31;5065652;28;20102;-71
2022/06/25 00:16:53;;;;;;;6.05;3.20;;;;;;;17.48;87.38;100760.19;5063831;28;20021;-70
2022/06/25 00:19:18;;;;;;;6.35;3.47;;;;;;;17.53;86.91;100762.13;5065671;28;20025;-70
2022/06/25 00:21:43;;;;;;;7.22;4.07;;;;;;;17.44;88.01;100764.66;5063013;28;20076;-72
2022/06/25 00:24:09;;;;;;;6.65;3.83;;;;;;;17.43;87.52;100770.47;5065620;28;20477;-70
2022/06/25 00:26:34;;;;;;;6.38;3.33;;;;;;;17.42;87.00;100761.31;5064913;28;20051;-72
2022/06/25 00:28:59;;;;;;;6.97;3.42;;;;;;;17.42;87.39;100772.41;5057346;28;20032;-71
2022/06/25 00:31:25;;;;;;;5.07;3.13;;;;;;;17.43;87.16;100771.31;5064345;28;20028;-71
2022/06/25 00:33:50;;;;;;;6.43;3.25;;;;;;;17.43;86.65;100771.31;5066065;28;20028;-71
2022/06/25 00:36:15;;;;;;;5.90;3.38;;;;;;;17.42;87.22;100772.41;5064998;28;20526;-70
2022/06/25 00:38:41;;;;;;;7.13;3.67;;;;;;;17.44;86.63;100769.38;5049276;28;20025;-71
2022/06/25 00:41:06;;;;;;;7.90;3.28;;;;;;;17.44;86.34;100769.38;5049201;28;20456;-72
2022/06/25 00:43:31;;;;;;;5.07;3.35;;;;;;;17.43;86.52;100774.06;5066211;28;20067;-72
2022/06/25 00:45:57;;;;;;;6.75;3.97;;;;;;;17.43;86.53;100776.84;5067873;28;20029;-71
2022/06/25 00:48:22;;;;;;;8.07;3.78;;;;;;;17.37;87.14;100770.47;5069033;28;20495;-72
2022/06/25 00:50:47;;;;;;;6.07;3.92;;;;;;;17.34;87.28;100770.22;5067986;28;20466;-71
2022/06/25 00:53:15;;;;;;;6.07;3.38;;;;;;;17.34;87.03;100770.22;5066894;28;20040;-71
2022/06/25 00:55:44;;;;;;;6.57;3.40;;;;;;;17.31;87.51;100768.00;5069376;28;20027;-71
2022/06/25 00:58:11;;;;;;;6.35;3.58;;;;;;;17.31;87.01;100765.22;5068614;28;20021;-71
2022/06/25 01:00:38;;;;;;;7.50;3.83;;;;;;;17.26;87.75;100763.25;5054164;28;20175;-71
2022/06/25 01:03:03;;;;;;;7.68;4.75;;;;;;;17.25;87.57;100781.03;5067061;28;20035;-71
2022/06/25 01:05:29;;;;;;;6.22;3.83;;;;;;;17.22;87.53;100783.53;5067436;28;20505;-72
2022/06/25 01:07:54;;;;;;;6.07;3.47;;;;;;;17.21;87.80;100792.97;5067286;28;20025;-71
2022/06/25 01:10:19;;;;;;;7.07;3.83;;;;;;;17.19;87.74;100784.09;5068388;28;20020;-70
2022/06/25 01:12:45;;;;;;;6.78;3.72;;;;;;;17.17;87.83;100789.91;5067234;28;20028;-72
2022/06/25 01:15:16;;;;;;;8.68;3.70;;;;;;;17.14;88.04;100797.97;5067830;28;20128;-71
2022/06/25 01:17:51;;;;;;;7.70;3.95;;;;;;;17.12;87.99;100795.44;5068439;28;20123;-72
2022/06/25 01:20:19;;;;;;;10.60;4.10;;;;;;;17.09;88.12;100799.63;5067532;28;20045;-71
2022/06/25 01:22:44;;;;;;;7.35;4.35;;;;;;;17.07;88.42;100792.66;5064964;28;20132;-70
2022/06/25 01:25:11;;;;;;;6.55;4.10;;;;;;;17.05;88.21;100790.16;5068413;28;20086;-71
2022/06/25 01:27:37;;;;;;;8.05;4.47;;;;;;;17.03;88.02;100797.94;5068417;28;20488;-71
2022/06/25 01:30:05;;;;;;;7.35;4.57;;;;;;;17.03;88.33;100794.31;5051567;28;20120;-71
2022/06/25 01:32:30;;;;;;;7.85;4.38;;;;;;;17.00;88.13;100801.25;5066114;28;20032;-72
2022/06/25 01:34:55;;;;;;;8.25;4.20;;;;;;;16.98;88.42;100805.41;5066661;28;20040;-72
2022/06/25 01:37:24;;;;;;;8.40;4.25;;;;;;;16.97;88.35;100803.75;5056597;28;20166;-71
2022/06/25 01:39:57;;;;;;;6.53;4.32;;;;;;;16.96;88.60;100810.41;5056474;28;20037;-72
2022/06/25 01:45:11;;;;;;;10.93;4.97;;;;;;;16.91;88.71;100821.50;5067630;28;20793;-71
2022/06/25 01:47:37;;;;;;;6.38;4.15;;;;;;;16.90;88.54;100823.44;5067340;28;20024;-71
2022/06/25 01:50:03;;;;;;;8.55;4.40;;;;;;;16.86;88.93;100820.38;5067338;28;20090;-71
2022/06/25 01:52:28;;;;;;;7.90;4.22;;;;;;;16.84;88.62;100817.03;5063751;28;20031;-72
2022/06/25 01:54:53;;;;;;;7.88;4.70;;;;;;;16.82;88.93;100823.94;5065382;28;20033;-72
2022/06/25 01:57:19;;;;;;;10.23;4.30;;;;;;;16.79;88.90;100833.66;5067709;28;20679;-71
2022/06/25 01:59:46;;;;;;;7.55;4.53;;;;;;;16.76;88.94;100839.75;5066488;28;20070;-72
2022/06/25 02:02:12;;;;;;;6.60;4.10;;;;;;;16.74;88.85;100838.38;5066321;28;20147;-71
2022/06/25 02:04:37;;;;;;;8.45;4.60;;;;;;;16.74;88.82;100843.91;5065490;28;20099;-70
2022/06/25 02:07:02;;;;;;;9.00;4.80;;;;;;;16.74;88.74;100843.91;5050671;28;20029;-70
2022/06/25 02:09:28;;;;;;;8.88;4.97;;;;;;;16.71;89.13;100856.38;5047656;28;20052;-71
2022/06/25 02:11:53;;;;;;;8.52;4.28;;;;;;;16.68;89.12;100850.53;5056975;28;20017;-70
2022/06/25 02:14:18;;;;;;;7.78;4.55;;;;;;;16.69;88.90;100854.97;5066908;28;20052;-71
2022/06/25 02:16:44;;;;;;;9.88;5.07;;;;;;;16.67;88.32;100852.44;5067046;28;20475;-72
2022/06/25 02:19:09;;;;;;;7.65;4.55;;;;;;;16.66;88.91;100855.50;5057833;28;20508;-70
2022/06/25 02:21:35;;;;;;;8.90;4.80;;;;;;;16.66;88.40;100863.81;5057486;28;20021;-71
2022/06/25 02:24:00;;;;;;;7.18;4.65;;;;;;;16.61;88.37;100865.44;5066837;28;20046;-70
2022/06/25 02:26:26;;;;;;;7.70;4.78;;;;;;;16.61;88.07;100868.22;5066512;28;20024;-71
2022/06/25 02:28:51;;;;;;;7.30;4.45;;;;;;;16.58;88.22;100857.69;5065654;28;20053;-66
2022/06/25 02:31:17;;;;;;;8.23;4.65;;;;;;;16.60;87.97;100866.56;5064921;28;20044;-71
2022/06/25 02:33:42;;;;;;;8.60;4.55;;;;;;;16.55;88.04;100869.31;5067019;28;20044;-67
2022/06/25 02:36:07;;;;;;;10.45;5.15;;;;;;;16.55;88.07;100874.03;5066940;28;20469;-71
2022/06/25 02:38:32;;;;;;;8.60;4.75;;;;;;;16.51;87.94;100872.88;5065546;28;20028;-71
2022/06/25 02:40:58;;;;;;;8.23;4.55;;;;;;;16.50;87.96;100877.59;5066194;28;20500;-71
2022/06/25 02:43:23;;;;;;;7.70;4.50;;;;;;;16.48;87.67;100885.38;5065644;28;20115;-71
2022/06/25 02:45:48;;;;;;;11.90;5.22;;;;;;;16.47;87.73;100885.63;5066065;28;20033;-71
2022/06/25 02:48:14;;;;;;;9.50;5.22;;;;;;;16.44;87.85;100888.94;5066514;28;20029;-72
2022/06/25 02:50:39;;;;;;;8.82;4.68;;;;;;;16.44;88.39;100889.78;5065714;28;20027;-71
2022/06/25 02:53:04;;;;;;;10.02;4.93;;;;;;;16.43;87.89;100899.19;5063261;28;20025;-72
2022/06/25 03:00:57;;;;;;;7.72;4.85;;;;;;;16.36;87.87;100890.28;5065306;28;20115;-71
2022/06/25 03:03:23;;;;;;;9.13;5.18;;;;;;;16.30;89.09;100888.56;5065803;28;20122;-71
2022/06/25 03:05:48;;;;;;;9.45;5.45;;;;;;;16.30;88.51;100891.34;5065165;28;20028;-72
2022/06/25 03:08:13;;;;;;;8.70;5.20;;;;;;;16.29;88.67;100895.22;5063695;28;20515;-72
2022/06/25 03:10:39;;;;;;;8.35;5.10;;;;;;;16.27;88.43;100903.81;5054695;28;20024;-72
2022/06/25 03:13:04;;;;;;;10.27;5.32;;;;;;;16.26;88.42;100904.06;5058728;28;20111;-72
2022/06/25 03:15:29;;;;;;;9.10;5.40;;;;;;;16.21;88.91;100901.25;5065659;28;20037;-72
2022/06/25 03:17:55;;;;;;;8.10;5.25;;;;;;;16.19;89.23;100903.47;5066237;28;20063;-72
2022/06/25 03:20:20;;;;;;;9.15;5.07;;;;;;;16.20;88.76;100903.19;5062964;28;20108;-71
2022/06/25 03:22:45;;;;;;;8.38;5.40;;;;;;;16.16;89.22;100898.47;5064720;28;20447;-72
2022/06/25 03:25:11;;;;;;;13.07;6.13;;;;;;;16.15;89.72;100907.88;5066207;28;20036;-71
2022/06/25 03:27:36;;;;;;;9.05;5.88;;;;;;;16.13;89.87;100905.38;5065423;28;20541;-71
2022/06/25 03:30:03;;;;;;;9.10;6.28;;;;;;;16.13;90.56;100904.53;5065476;28;20029;-71
2022/06/25 03:32:29;;;;;;;9.77;6.47;;;;;;;16.12;89.71;100908.41;5065110;28;20025;-72
2022/06/25 03:34:54;;;;;;;10.68;6.13;;;;;;;16.09;90.28;100915.31;5065580;28;20054;-71
2022/06/25 03:37:19;;;;;;;9.25;5.97;;;;;;;16.11;90.95;100917.81;5065318;28;20039;-72
2022/06/25 03:39:44;;;;;;;9.73;6.20;;;;;;;16.05;91.22;100912.22;5065513;28;20025;-72
2022/06/25 03:42:10;;;;;;;10.10;6.38;;;;;;;16.06;91.57;100919.44;5065113;28;20745;-71
2022/06/25 03:44:35;;;;;;;10.60;6.13;;;;;;;16.02;90.92;100907.25;5066424;28;20070;-71
2022/06/25 03:47:00;;;;;;;11.40;6.15;;;;;;;16.01;90.96;100907.50;5064137;28;20021;-71
2022/06/25 03:49:25;;;;;;;10.15;6.50;;;;;;;16.05;91.44;100912.22;5065277;28;20063;-72
2022/06/25 03:51:51;;;;;;;10.35;6.53;;;;;;;16.05;91.44;100915.00;5062571;28;20480;-71
2022/06/25 03:54:16;;;;;;;12.57;7.35;;;;;;;16.11;90.46;100913.09;5064745;28;20025;-72
2022/06/25 03:56:42;;;;;;;10.90;6.65;;;;;;;16.18;90.19;100919.28;5064930;28;20048;-71
2022/06/25 03:59:07;;;;;;;8.65;6.43;;;;;;;16.23;89.93;100922.06;5065858;28;20025;-71
2022/06/25 04:01:32;;;;;;;11.57;7.32;;;;;;;16.31;89.49;100923.50;5054687;28;20378;-71
2022/06/25 04:03:58;;;;;;;10.25;6.18;;;;;;;16.35;89.86;100925.47;5045709;28;20057;-71
2022/06/25 04:06:23;;;;;;;13.27;6.85;;;;;;;16.41;89.95;100922.72;5053952;28;20082;-71
2022/06/25 04:08:48;;;;;;;10.63;6.70;;;;;;;16.47;90.35;100921.66;5064325;28;20036;-71
2022/06/25 04:11:14;;;;;;;10.50;6.80;;;;;;;16.51;89.89;100925.56;5065368;28;20469;-72
2022/06/25 04:13:39;;;;;;;14.23;7.22;;;;;;;16.55;89.51;100919.22;5064978;28;20080;-71
2022/06/25 04:16:04;;;;;;;10.48;7.78;;;;;;;16.56;89.99;100920.88;5058669;28;20036;-71
2022/06/25 04:18:31;;;;;;;10.98;7.72;;;;;;;16.57;90.21;100921.72;5054420;28;20120;-71
2022/06/25 04:20:57;;;;;;;12.52;9.45;;;;;;;16.57;89.61;100922.56;5068060;28;20046;-71
2022/06/25 04:23:23;;;;;;;12.57;8.80;;;;;;;16.58;89.45;100923.41;5068275;28;20056;-72
2022/06/25 04:25:48;;;;;;;11.00;8.40;;;;;;;16.54;90.58;100928.66;5068646;28;20101;-72
2022/06/25 04:30:57;;;;;;;12.68;7.97;;;;;;;16.74;88.73;100927.94;5068334;28;20527;-72
2022/06/25 04:33:22;;;;;;;10.82;7.68;;;;;;;16.77;88.93;100932.09;5068589;28;20052;-72
2022/06/25 04:35:47;;;;;;;9.02;6.38;;;;;;;16.84;88.40;100932.72;5069470;28;20040;-72
2022/06/25 04:38:13;;;;;;;9.93;6.32;;;;;;;16.88;87.99;100938.53;5066314;28;20381;-71
2022/06/25 04:40:38;;;;;;;9.00;5.90;;;;;;;16.94;87.09;100940.25;5068133;28;20020;-72
2022/06/25 04:43:03;;;;;;;10.43;5.80;;;;;;;17.01;87.33;100943.59;5067691;28;20369;-72
2022/06/25 04:45:29;;;;;;;10.48;5.45;;;;;;;17.09;86.94;100945.88;5067474;28;20032;-73
2022/06/25 04:48:01;;;;;;;8.65;4.97;;;;;;;17.18;86.04;100949.75;5053222;28;20074;-72
2022/06/25 04:50:26;;;;;;;8.25;5.00;;;;;;;17.25;86.47;100952.31;5068130;28;20044;-71
2022/06/25 04:52:51;;;;;;;7.57;4.60;;;;;;;17.31;85.58;100948.44;5066288;28;20563;-70
2022/06/25 04:55:17;;;;;;;10.70;5.82;;;;;;;17.36;85.81;100949.28;5066893;28;20036;-72
2022/06/25 04:57:42;;;;;;;9.77;5.40;;;;;;;17.42;85.87;100955.66;5068979;28;20481;-67
2022/06/25 05:00:08;;;;;;;9.52;5.05;;;;;;;17.48;86.52;100957.34;5068426;28;20115;-72
2022/06/25 05:02:33;;;;;;;9.07;5.15;;;;;;;17.52;85.63;100954.88;5067919;28;20033;-72
2022/06/25 05:04:58;;;;;;;9.00;5.03;;;;;;;17.58;84.79;100956.53;5067877;28;20074;-72
2022/06/25 05:07:23;;;;;;;9.30;4.70;;;;;;;17.58;84.69;100960.13;5067486;28;20039;-72
2022/06/25 05:09:49;;;;;;;8.13;4.68;;;;;;;17.61;84.36;100961.56;5068411;28;20036;-71
2022/06/25 05:13:11;;;;;;;10.68;5.13;;;;;;;17.63;84.55;100962.09;5055958;28;20024;-72
2022/06/25 05:14:59;;;;;;;9.15;4.63;;;;;;;17.66;84.57;100966.28;5058358;28;20961;-71
2022/06/25 05:17:24;;;;;;;8.38;4.80;;;;;;;17.70;84.01;100972.97;5068798;28;20078;-72
2022/06/25 05:19:50;;;;;;;11.15;5.00;;;;;;;17.63;83.69;100971.25;5067930;28;20058;-71
2022/06/25 05:22:15;;;;;;;8.30;5.00;;;;;;;17.62;84.10;100972.38;5066089;28;20044;-71
2022/06/25 05:24:40;;;;;;;8.82;5.35;;;;;;;17.59;83.57;100970.16;5054181;28;20314;-71
2022/06/25 05:27:05;;;;;;;8.75;4.75;;;;;;;17.60;83.44;100979.34;5059574;28;20580;-72
2022/06/25 05:29:31;;;;;;;9.35;4.95;;;;;;;17.58;83.82;100973.19;5066273;28;20342;-71
2022/06/25 05:31:56;;;;;;;10.77;4.97;;;;;;;17.60;83.45;100974.59;5065159;28;20393;-72
2022/06/25 05:34:21;;;;;;;11.10;4.78;;;;;;;17.66;82.60;100971.84;5059592;28;20041;-70
2022/06/25 05:36:47;;;;;;;8.45;4.43;;;;;;;17.68;83.07;100975.16;5047357;28;20028;-72
2022/06/25 05:39:12;;;;;;;9.60;4.80;;;;;;;17.76;83.40;100985.78;5049730;28;20071;-68
2022/06/25 05:41:37;;;;;;;10.88;4.75;;;;;;;17.88;82.25;100983.56;5068219;28;20024;-72
2022/06/25 05:44:03;;;;;;;8.85;4.32;;;;;;;17.99;81.80;100984.41;5066168;28;20370;-72
2022/06/25 05:46:28;;;;;;;10.35;4.75;;;;;;;18.22;81.86;100989.41;5065341;28;20036;-72
2022/06/25 05:48:53;;;;;;;9.70;4.50;;;;;;;18.39;81.24;100995.53;5067365;28;20374;-71
2022/06/25 05:51:18;;;;;;;7.75;4.10;;;;;;;18.50;80.21;100987.16;5057089;28;20028;-70
2022/06/25 05:53:44;;;;;;;7.95;4.00;;;;;;;18.47;79.34;100994.13;5054797;28;20039;-70
2022/06/25 05:56:09;;;;;;;8.55;3.90;;;;;;;18.41;78.97;101004.44;5067602;28;20028;-71
2022/06/25 05:58:34;;;;;;;7.50;3.88;;;;;;;18.37;79.32;101005.28;5067083;28;20036;-71
2022/06/25 06:01:00;;;;;;;8.80;4.57;;;;;;;18.34;79.96;101005.81;5057605;28;20482;-71
2022/06/25 06:03:25;;;;;;;8.98;4.25;;;;;;;18.36;80.19;101011.94;5065566;28;20028;-71
2022/06/25 06:05:50;;;;;;;10.05;4.13;;;;;;;18.38;80.13;101006.94;5065489;28;20028;-72
2022/06/25 06:08:15;;;;;;;9.93;4.10;;;;;;;18.49;79.79;101011.38;5064220;28;20056;-71
2022/06/25 06:10:41;;;;;;;8.65;4.00;;;;;;;18.57;78.86;101021.09;5064398;28;20449;-71
2022/06/25 06:13:06;;;;;;;9.02;4.20;;;;;;;18.64;78.85;101025.25;5066258;28;20081;-71
2022/06/25 06:15:31;;;;;;;9.57;4.93;;;;;;;18.74;77.38;101023.59;5066290;28;20071;-71
2022/06/25 06:17:57;;;;;;;9.80;4.15;;;;;;;18.80;78.32;101014.13;5066413;28;20121;-71
2022/06/25 06:20:22;;;;;;;9.57;4.18;;;;;;;18.85;77.25;101028.03;5065552;28;20154;-72
2022/06/25 06:22:47;;;;;;;8.43;4.20;;;;;;;18.91;78.12;101024.97;5065881;28;20397;-71
2022/06/25 06:25:13;;;;;;;8.88;4.20;;;;;;;18.99;77.38;101033.84;5059363;28;20359;-71
2022/06/25 06:27:38;;;;;;;8.30;4.18;;;;;;;19.01;76.15;101026.03;5065578;28;20020;-71
2022/06/25 06:30:04;;;;;;;8.05;4.55;;;;;;;19.04;76.40;101036.63;5065338;28;20734;-71
2022/06/25 06:32:29;;;;;;;7.65;4.32;;;;;;;19.16;76.92;101035.22;5066185;28;20031;-71
2022/06/25 06:34:54;;;;;;;8.95;4.28;;;;;;;19.27;76.47;101041.56;5066138;28;20066;-71
2022/06/25 06:37:20;;;;;;;9.68;4.47;;;;;;;19.31;75.30;101039.03;5063575;28;20024;-71
2022/06/25 06:39:46;;;;;;;10.23;4.40;;;;;;;19.27;75.30;101043.53;5066069;28;20540;-72
2022/06/25 06:42:11;;;;;;;12.05;4.22;;;;;;;19.32;75.81;101035.16;5058581;28;20040;-71
2022/06/25 06:44:36;;;;;;;8.93;4.20;;;;;;;19.36;74.72;101033.44;5046319;28;20037;-72
2022/06/25 06:47:02;;;;;;;12.18;4.68;;;;;;;19.32;74.48;101041.56;5045479;28;20373;-72
2022/06/25 06:49:27;;;;;;;7.63;4.43;;;;;;;19.38;75.32;101039.56;5066118;28;20035;-71
2022/06/25 06:51:52;;;;;;;8.20;4.40;;;;;;;19.38;74.63;101036.78;5065023;28;20099;-71
2022/06/25 06:54:18;;;;;;;8.90;4.27;;;;;;;19.41;75.70;101039.84;5065984;28;20052;-72
2022/06/25 06:56:43;;;;;;;10.23;4.53;;;;;;;19.37;75.50;101038.75;5064818;28;20287;-71
2022/06/25 06:59:09;;;;;;;8.20;4.38;;;;;;;19.27;75.44;101036.00;5065023;28;20461;-71
2022/06/25 07:01:34;;;;;;;10.80;4.90;;;;;;;19.16;75.97;101042.72;5065663;28;20035;-71
2022/06/25 07:03:59;;;;;;;9.35;4.60;;;;;;;19.17;76.40;101038.81;5063425;28;20059;-72
2022/06/25 07:06:25;;;;;;;10.32;4.45;;;;;;;19.18;76.76;101055.22;5064490;28;20027;-72
2022/06/25 07:08:50;;;;;;;9.80;4.38;;;;;;;19.18;75.96;101044.09;5061286;28;20384;-72
2022/06/25 07:11:31;;;;;;;7.77;4.23;;;;;;;19.19;76.34;101045.75;5065163;28;20017;-71
2022/06/25 07:14:01;;;;;;;9.18;4.57;;;;;;;19.31;75.22;101041.81;5058107;28;20637;-72
2022/06/25 07:16:28;;;;;;;8.57;4.25;;;;;;;19.35;75.38;101046.53;5044548;28;20021;-72
2022/06/25 07:18:55;;;;;;;9.35;5.07;;;;;;;19.45;75.70;101049.28;5060537;28;20031;-71
2022/06/25 07:21:21;;;;;;;7.53;4.20;;;;;;;19.58;74.81;101047.84;5064215;28;20019;-72
2022/06/25 07:23:46;;;;;;;11.05;4.50;;;;;;;19.64;74.33;101048.69;5064809;28;20033;-72
2022/06/25 07:26:12;;;;;;;12.88;4.95;;;;;;;19.72;74.88;101047.22;5064434;28;20028;-67
2022/06/25 07:28:37;;;;;;;8.65;4.40;;;;;;;19.80;74.25;101038.28;5065057;28;20032;-72
2022/06/25 07:31:02;;;;;;;9.00;4.07;;;;;;;19.92;73.49;101052.69;5064316;28;20028;-71
2022/06/25 07:33:29;;;;;;;9.80;4.38;;;;;;;19.89;73.62;101039.34;5062698;28;20078;-72
2022/06/25 07:35:55;;;;;;;8.32;3.88;;;;;;;19.90;73.45;101052.97;5062839;28;20077;-72
2022/06/25 07:38:20;;;;;;;10.18;3.95;;;;;;;19.99;73.57;101047.63;5064987;28;20434;-73
2022/06/25 07:40:46;;;;;;;7.90;4.38;;;;;;;20.04;73.53;101043.97;5064875;28;20381;-73
2022/06/25 07:43:11;;;;;;;11.95;5.22;;;;;;;20.10;72.53;101049.22;5064790;28;20039;-73
2022/06/25 07:45:36;;;;;;;11.90;4.72;;;;;;;20.15;72.66;101046.41;5063522;28;20075;-71
2022/06/25 07:48:02;;;;;;;8.52;4.05;;;;;;;20.32;72.31;101045.16;5064722;28;20029;-71
2022/06/25 07:53:11;;;;;;;8.48;4.03;;;;;;;20.70;70.64;101051.84;5067761;28;20042;-73
2022/06/25 07:55:36;;;;;;;15.07;5.77;;;;;;;20.71;70.13;101054.34;5068060;28;20431;-72
2022/06/25 07:58:02;;;;;;;7.45;4.07;;;;;;;20.61;70.31;101051.63;5068587;28;20279;-74
2022/06/25 08:00:27;;;;;;;8.05;3.70;;;;;;;20.54;70.85;101053.94;5067036;28;20108;-73
2022/06/25 08:02:52;;;;;;;6.85;3.75;;;;;;;20.53;70.01;101045.84;5068366;28;20103;-71
2022/06/25 08:05:18;;;;;;;7.22;3.70;;;;;;;20.68;70.80;101052.16;5068093;28;20370;-70
2022/06/25 08:07:45;;;;;;;8.25;4.10;;;;;;;20.70;70.30;101047.09;5068009;28;20052;-70
2022/06/25 08:10:14;;;;;;;9.10;3.85;;;;;;;20.59;73.77;101050.28;5068622;28;20031;-72
2022/06/25 08:12:39;;;;;;;7.28;3.70;;;;;;;20.45;70.70;101058.44;5069465;28;20021;-71
2022/06/25 08:15:07;;;;;;;7.15;3.65;;;;;;;20.23;71.87;101063.66;5065815;28;20656;-71
2022/06/25 08:17:34;;;;;;;7.03;4.10;;;;;;;20.09;72.15;101063.47;5068961;28;20036;-71
2022/06/25 08:19:59;;;;;;;10.77;4.40;;;;;;;20.05;72.79;101065.16;5068044;28;20481;-72
2022/06/25 08:22:25;;;;;;;9.27;4.38;;;;;;;20.13;74.18;101062.59;5067299;28;20040;-71
2022/06/25 08:24:50;;;;;;;7.88;4.38;;;;;;;20.32;72.55;101061.88;5067695;28;20060;-71
2022/06/25 08:27:15;;;;;;;8.25;3.80;;;;;;;20.43;71.66;101071.88;5067433;28;20097;-71
2022/06/25 08:29:41;;;;;;;7.82;3.63;;;;;;;20.41;71.71;101065.72;5067593;28;20791;-71
2022/06/25 08:32:06;;;;;;;6.65;3.53;;;;;;;20.42;71.62;101067.38;5067771;28;20029;-72
2022/06/25 08:34:31;;;;;;;6.75;3.40;;;;;;;20.41;72.37;101068.53;5067028;28;20036;-71
2022/06/25 08:36:57;;;;;;;7.35;3.67;;;;;;;20.36;73.73;101072.19;5066392;28;20031;-71
2022/06/25 08:39:22;;;;;;;6.38;2.92;;;;;;;20.28;71.87;101066.41;5068263;28;20024;-71
2022/06/25 08:41:48;;;;;;;6.53;3.00;;;;;;;20.07;72.29;101072.13;5067674;28;20025;-72
2022/06/25 08:44:13;;;;;;;6.95;3.03;;;;;;;19.97;73.79;101072.16;5066850;28;20047;-73
2022/06/25 08:46:39;;;;;;;5.97;2.97;;;;;;;19.88;74.38;101073.91;5068011;28;20107;-71
2022/06/25 08:49:05;;;;;;;5.85;2.90;;;;;;;19.82;73.80;101075.03;5067379;28;20016;-71
2022/06/25 08:51:32;;;;;;;5.10;2.53;;;;;;;19.75;72.98;101074.53;5067410;28;20029;-71
2022/06/25 08:53:58;;;;;;;6.95;3.00;;;;;;;19.78;75.36;101080.38;5066947;28;20036;-71
2022/06/25 08:56:23;;;;;;;6.82;2.88;;;;;;;19.91;73.34;101067.75;5067621;28;20028;-71
2022/06/25 08:58:48;;;;;;;8.32;3.00;;;;;;;20.38;71.52;101077.50;5068115;28;20032;-71
2022/06/25 09:01:14;;;;;;;8.00;2.97;;;;;;;21.01;71.24;101071.91;5067555;28;20047;-71
2022/06/25 09:03:39;;;;;;;9.13;3.17;;;;;;;21.40;67.62;101070.97;5067539;28;20033;-70
2022/06/25 09:06:18;;;;;;;7.65;3.38;;;;;;;21.34;67.83;101067.41;5066250;28;20028;-71
2022/06/25 09:09:04;;;;;;;7.95;3.42;;;;;;;21.40;68.35;101069.00;5066712;28;20028;-71
2022/06/25 09:11:29;;;;;;;7.28;3.45;;;;;;;21.37;66.93;101075.16;5067641;28;20037;-69
2022/06/25 09:14:17;;;;;;;6.75;3.60;;;;;;;21.35;68.10;101076.59;5065272;28;20501;-70
2022/06/25 09:16:48;;;;;;;5.82;3.25;;;;;;;21.37;68.31;101072.38;5067008;28;20082;-70
2022/06/25 09:19:27;;;;;;;7.80;3.88;;;;;;;21.38;68.85;101076.81;5067425;28;20020;-69
2022/06/25 09:21:53;;;;;;;6.05;3.35;;;;;;;21.33;68.95;101082.47;5066111;28;20024;-70
2022/06/25 09:24:18;;;;;;;6.78;3.20;;;;;;;21.30;68.13;101082.22;5066721;28;20033;-70
2022/06/25 09:26:52;;;;;;;8.60;3.70;;;;;;;21.05;68.67;101081.38;5066829;28;20017;-69
2022/06/25 09:29:18;;;;;;;9.07;3.95;;;;;;;20.85;69.06;101076.00;5067200;28;20029;-70
2022/06/25 09:31:43;;;;;;;9.43;3.58;;;;;;;20.76;69.92;101069.38;5066761;28;20020;-70
2022/06/25 09:34:09;;;;;;;7.05;3.50;;;;;;;20.67;71.19;101074.75;5066692;28;20133;-71
2022/06/25 09:36:35;;;;;;;9.50;3.53;;;;;;;20.59;72.89;101087.38;5066274;28;20028;-70
2022/06/25 09:39:00;;;;;;;6.40;3.70;;;;;;;20.54;72.38;101081.84;5066998;28;20061;-70
2022/06/25 09:41:25;;;;;;;9.68;3.65;;;;;;;20.54;72.66;101075.44;5066971;28;20031;-71
2022/06/25 09:43:51;;;;;;;9.05;3.95;;;;;;;20.56;71.71;101075.97;5066411;28;20322;-72
2022/06/25 09:46:17;;;;;;;7.38;3.53;;;;;;;20.59;72.55;101084.59;5066360;28;20091;-71
2022/06/25 09:48:43;;;;;;;4.68;3.10;;;;;;;20.69;70.51;101076.13;5066658;28;20538;-72
2022/06/25 09:51:19;;;;;;;5.70;3.10;;;;;;;20.94;70.02;101074.22;5066198;28;20434;-71
2022/06/25 09:53:48;;;;;;;5.68;2.60;;;;;;;21.41;69.09;101072.63;5065955;28;20024;-71
2022/06/25 09:56:16;;;;;;;4.50;2.50;;;;;;;22.06;65.75;101070.06;5066149;28;20029;-71
2022/06/25 09:58:43;;;;;;;5.55;2.95;;;;;;;22.82;63.44;101078.38;5066810;28;20104;-72
2022/06/25 10:01:09;;;;;;;6.28;2.75;;;;;;;23.04;62.83;101070.97;5063694;28;20677;-72
2022/06/25 10:03:36;;;;;;;6.80;2.80;;;;;;;22.89;62.35;101084.44;5066896;28;20028;-71
2022/06/25 10:06:02;;;;;;;6.77;2.67;;;;;;;22.53;63.27;101077.44;5065759;28;20393;-72
2022/06/25 10:08:29;;;;;;;5.45;2.60;;;;;;;22.32;63.97;101076.13;5066435;28;20025;-71
2022/06/25 10:10:55;;;;;;;5.03;2.67;;;;;;;22.23;63.37;101078.78;5064806;28;20033;-71
2022/06/25 10:13:21;;;;;;;7.60;3.28;;;;;;;22.49;64.05;101064.38;5065143;28;20051;-71
2022/06/25 10:15:47;;;;;;;8.48;2.80;;;;;;;22.68;63.12;101073.56;5064981;28;20043;-71
2022/06/25 10:18:13;;;;;;;5.15;2.58;;;;;;;22.84;62.23;101076.09;5066372;28;20504;-71
2022/06/25 10:20:40;;;;;;;5.60;2.38;;;;;;;22.98;61.19;101072.22;5064791;28;20515;-71
2022/06/25 10:23:07;;;;;;;6.53;2.90;;;;;;;22.91;61.80;101077.41;5066127;28;20663;-71
2022/06/25 10:25:33;;;;;;;7.97;2.88;;;;;;;23.02;61.46;101072.44;5066416;28;20357;-71
2022/06/25 10:28:03;;;;;;;6.82;2.83;;;;;;;23.40;62.31;101073.06;5065835;28;20028;-71
2022/06/25 10:30:52;;;;;;;6.80;2.40;;;;;;;24.46;58.90;101071.84;5065107;28;20431;-71
2022/06/25 10:33:18;;;;;;;6.00;2.60;;;;;;;25.09;56.82;101061.50;5065478;28;20028;-71
2022/06/25 10:35:47;;;;;;;5.38;2.63;;;;;;;26.07;52.82;101057.53;5065015;28;20048;-69
2022/06/25 10:38:21;;;;;;;7.30;2.72;;;;;;;26.84;51.57;101061.44;5065518;28;20016;-70
2022/06/25 10:40:58;;;;;;;6.25;2.45;;;;;;;26.90;52.07;101063.75;5065065;28;20029;-70
2022/06/25 10:43:53;;;;;;;5.82;2.53;;;;;;;26.32;52.69;101062.31;5065846;28;20082;-69
2022/06/25 10:46:25;;;;;;;2.67;1.80;;;;;;;25.73;52.72;101070.34;5064621;28;20032;-70
2022/06/25 10:49:07;;;;;;;2.75;1.75;;;;;;;25.32;54.57;101065.91;5065618;28;20025;-70
2022/06/25 10:51:42;;;;;;;5.07;1.70;;;;;;;25.00;53.34;101071.88;5044704;28;20468;-69
2022/06/25 10:54:33;;;;;;;6.30;1.85;;;;;;;24.90;52.68;101074.97;5045927;28;20021;-70
2022/06/25 10:57:00;;;;;;;4.47;1.85;;;;;;;24.63;54.45;101065.53;5034709;28;20036;-70
2022/06/25 10:59:32;;;;;;;6.90;1.80;;;;;;;24.93;55.54;101068.69;5048719;28;20461;-70
2022/06/25 11:01:59;;;;;;;4.63;1.80;;;;;;;25.30;53.34;101064.59;5064480;28;20032;-70
2022/06/25 11:04:29;;;;;;;4.50;1.45;;;;;;;25.04;51.83;101056.00;5065630;28;20396;-70
2022/06/25 11:07:17;;;;;;;2.55;1.33;;;;;;;24.72;53.50;101055.16;5064389;28;20035;-70
2022/06/25 11:10:01;;;;;;;5.13;1.38;;;;;;;24.67;53.64;101055.31;5062559;28;20117;-71
2022/06/25 11:12:28;;;;;;;4.75;1.50;;;;;;;24.67;53.75;101054.47;5064059;28;20039;-69
2022/06/25 11:15:02;;;;;;;3.30;2.35;;;;;;;24.71;52.23;101050.72;5063860;28;20090;-71
2022/06/25 11:17:28;;;;;;;4.00;1.58;;;;;;;24.54;52.16;101050.63;5064890;28;20065;-71
2022/06/25 11:19:54;;;;;;;3.40;1.40;;;;;;;24.67;53.07;101041.25;5062880;28;20024;-70
2022/06/25 11:22:19;;;;;;;2.95;1.42;;;;;;;24.59;52.12;101045.69;5064691;28;20028;-72
2022/06/25 11:28:47;;;;;;;2.85;1.20;;;;;;;24.45;52.61;101047.72;5064445;28;20047;-71
2022/06/25 11:30:14;;;;;;;2.92;1.50;;;;;;;24.43;51.50;101043.56;5062820;28;20040;-71
2022/06/25 11:32:46;;;;;;;4.07;1.40;;;;;;;24.92;53.33;101062.22;5065241;28;20025;-70
2022/06/25 11:35:12;;;;;;;2.40;1.30;;;;;;;25.44;51.11;101050.41;5061256;28;20051;-72
2022/06/25 11:37:37;;;;;;;3.17;1.20;;;;;;;25.80;53.64;101055.81;5063463;28;20473;-71
2022/06/25 11:40:03;;;;;;;2.60;1.40;;;;;;;25.95;53.29;101054.50;5063387;28;20033;-70
2022/06/25 11:42:32;;;;;;;4.18;1.50;;;;;;;25.58;49.64;101063.19;5065498;28;20384;-71